VLG6TB LEBB-LPPR
Flight info
| Callsign | VLG6TB |
|---|---|
| Flight time | 1h 1m |
| Altitude | 33000 |
| Route | AMTOS DCT NEA DCT ZMR DCT ADORO DCT INKIT |
| Aircraft | A320/M-SDE3FGHIRWY/LB1 |
Departure
| Time | 2026-05-04 03:06 |
|---|---|
| Airport | Bilbao Airport (LEBB) |
Arrival
| Time | 2026-05-04 04:07 |
|---|---|
| Airport | Francisco de Sá Carneiro Airport (LPPR) |
| Time | Latitude | Longitude | Altitude | Speed | Heading |
|---|---|---|---|---|---|
| 2026-05-04 02:38 | 43.30446 | -2.90684 | 133 ft | 0 kts | 27° |
| 2026-05-04 02:58 | 43.30425 | -2.90699 | 132 ft | 4 kts | 30° |
| 2026-05-04 02:58 | 43.30407 | -2.90719 | 132 ft | 2 kts | 59° |
| 2026-05-04 02:59 | 43.30398 | -2.90750 | 132 ft | 4 kts | 94° |
| 2026-05-04 02:59 | 43.30404 | -2.90781 | 132 ft | 1 kts | 116° |
| 2026-05-04 03:02 | 43.30403 | -2.90778 | 132 ft | 2 kts | 116° |
| 2026-05-04 03:02 | 43.30383 | -2.90723 | 132 ft | 8 kts | 116° |
| 2026-05-04 03:02 | 43.30353 | -2.90641 | 132 ft | 11 kts | 116° |
| 2026-05-04 03:02 | 43.30281 | -2.90553 | 132 ft | 15 kts | 145° |
| 2026-05-04 03:03 | 43.30181 | -2.90555 | 132 ft | 16 kts | 210° |
| 2026-05-04 03:03 | 43.30094 | -2.90502 | 132 ft | 16 kts | 115° |
| 2026-05-04 03:03 | 43.30036 | -2.90349 | 132 ft | 20 kts | 117° |
| 2026-05-04 03:03 | 43.29969 | -2.90168 | 132 ft | 22 kts | 117° |
| 2026-05-04 03:04 | 43.29901 | -2.89982 | 132 ft | 20 kts | 117° |
| 2026-05-04 03:04 | 43.29837 | -2.89808 | 132 ft | 21 kts | 116° |
| 2026-05-04 03:04 | 43.29773 | -2.89633 | 132 ft | 20 kts | 116° |
| 2026-05-04 03:04 | 43.29712 | -2.89499 | 132 ft | 16 kts | 154° |
| 2026-05-04 03:05 | 43.29644 | -2.89594 | 132 ft | 14 kts | 250° |
| 2026-05-04 03:05 | 43.29623 | -2.89732 | 132 ft | 15 kts | 283° |
| 2026-05-04 03:05 | 43.29677 | -2.89881 | 132 ft | 32 kts | 296° |
| 2026-05-04 03:05 | 43.29887 | -2.90452 | 132 ft | 99 kts | 296° |
| 2026-05-04 03:06 | 43.30279 | -2.91518 | 136 ft | 149 kts | 297° |
| 2026-05-04 03:06 | 43.30765 | -2.92838 | 580 ft | 154 kts | 297° |
| 2026-05-04 03:06 | 43.31251 | -2.94151 | 1167 ft | 155 kts | 297° |
| 2026-05-04 03:06 | 43.31740 | -2.95467 | 1764 ft | 155 kts | 297° |
| 2026-05-04 03:07 | 43.32267 | -2.96819 | 2124 ft | 171 kts | 304° |
| 2026-05-04 03:07 | 43.33146 | -2.98079 | 2380 ft | 194 kts | 315° |
| 2026-05-04 03:07 | 43.34168 | -2.99443 | 2689 ft | 215 kts | 316° |
| 2026-05-04 03:07 | 43.35324 | -3.00924 | 3041 ft | 239 kts | 316° |
| 2026-05-04 03:08 | 43.36585 | -3.02548 | 3649 ft | 254 kts | 316° |
| 2026-05-04 03:08 | 43.37882 | -3.04233 | 4527 ft | 260 kts | 315° |
| 2026-05-04 03:08 | 43.39008 | -3.06183 | 5363 ft | 264 kts | 294° |
| 2026-05-04 03:08 | 43.39352 | -3.08654 | 6203 ft | 267 kts | 266° |
| 2026-05-04 03:09 | 43.38869 | -3.11086 | 7028 ft | 272 kts | 242° |
| 2026-05-04 03:09 | 43.37632 | -3.13084 | 7867 ft | 276 kts | 216° |
| 2026-05-04 03:09 | 43.35903 | -3.14191 | 8648 ft | 281 kts | 198° |
| 2026-05-04 03:09 | 43.34008 | -3.14851 | 9522 ft | 282 kts | 192° |
| 2026-05-04 03:10 | 43.32052 | -3.15248 | 10338 ft | 285 kts | 187° |
| 2026-05-04 03:10 | 43.30066 | -3.15390 | 11055 ft | 293 kts | 182° |
| 2026-05-04 03:10 | 43.27949 | -3.15190 | 11275 ft | 317 kts | 174° |
| 2026-05-04 03:10 | 43.25739 | -3.14514 | 11666 ft | 333 kts | 165° |
| 2026-05-04 03:11 | 43.23552 | -3.13374 | 12291 ft | 341 kts | 158° |
| 2026-05-04 03:11 | 43.21388 | -3.11993 | 12973 ft | 343 kts | 163° |
| 2026-05-04 03:11 | 43.19083 | -3.11267 | 13705 ft | 339 kts | 178° |
| 2026-05-04 03:11 | 43.16735 | -3.11434 | 14352 ft | 338 kts | 194° |
| 2026-05-04 03:12 | 43.14527 | -3.12509 | 15027 ft | 338 kts | 207° |
| 2026-05-04 03:12 | 43.12410 | -3.13925 | 15688 ft | 339 kts | 207° |
| 2026-05-04 03:12 | 43.10282 | -3.15340 | 16319 ft | 342 kts | 206° |
| 2026-05-04 03:12 | 43.08135 | -3.16757 | 16934 ft | 344 kts | 206° |
| 2026-05-04 03:13 | 43.05970 | -3.18180 | 17525 ft | 346 kts | 206° |
| 2026-05-04 03:13 | 43.03788 | -3.19610 | 18118 ft | 349 kts | 206° |
| 2026-05-04 03:13 | 43.01587 | -3.21049 | 18735 ft | 352 kts | 206° |
| 2026-05-04 03:13 | 42.99423 | -3.22618 | 19346 ft | 354 kts | 213° |
| 2026-05-04 03:14 | 42.97383 | -3.24517 | 19967 ft | 356 kts | 214° |
| 2026-05-04 03:14 | 42.95333 | -3.26432 | 20557 ft | 358 kts | 214° |
| 2026-05-04 03:14 | 42.93269 | -3.28352 | 21119 ft | 360 kts | 214° |
| 2026-05-04 03:14 | 42.91190 | -3.30283 | 21669 ft | 362 kts | 214° |
| 2026-05-04 03:15 | 42.89103 | -3.32219 | 22193 ft | 364 kts | 214° |
| 2026-05-04 03:15 | 42.87001 | -3.34167 | 22711 ft | 366 kts | 214° |
| 2026-05-04 03:15 | 42.84886 | -3.36124 | 23221 ft | 368 kts | 214° |
| 2026-05-04 03:15 | 42.82759 | -3.38089 | 23724 ft | 370 kts | 214° |
| 2026-05-04 03:16 | 42.80622 | -3.40063 | 24194 ft | 373 kts | 214° |
| 2026-05-04 03:16 | 42.78472 | -3.42048 | 24660 ft | 374 kts | 214° |
| 2026-05-04 03:16 | 42.76309 | -3.44048 | 25099 ft | 376 kts | 214° |
| 2026-05-04 03:16 | 42.74136 | -3.46055 | 25527 ft | 378 kts | 214° |
| 2026-05-04 03:17 | 42.71953 | -3.48064 | 25937 ft | 380 kts | 214° |
| 2026-05-04 03:17 | 42.69757 | -3.50083 | 26351 ft | 382 kts | 214° |
| 2026-05-04 03:17 | 42.67549 | -3.52113 | 26721 ft | 384 kts | 214° |
| 2026-05-04 03:17 | 42.65331 | -3.54150 | 27102 ft | 386 kts | 214° |
| 2026-05-04 03:18 | 42.63101 | -3.56196 | 27503 ft | 388 kts | 214° |
| 2026-05-04 03:18 | 42.60862 | -3.58245 | 27875 ft | 389 kts | 214° |
| 2026-05-04 03:18 | 42.58608 | -3.60304 | 28245 ft | 391 kts | 214° |
| 2026-05-04 03:18 | 42.56352 | -3.62365 | 28612 ft | 392 kts | 214° |
| 2026-05-04 03:19 | 42.54089 | -3.64442 | 28968 ft | 393 kts | 214° |
| 2026-05-04 03:19 | 42.51818 | -3.66524 | 29309 ft | 395 kts | 215° |
| 2026-05-04 03:19 | 42.49535 | -3.68615 | 29643 ft | 397 kts | 214° |
| 2026-05-04 03:19 | 42.47240 | -3.70705 | 29964 ft | 398 kts | 214° |
| 2026-05-04 03:20 | 42.44939 | -3.72798 | 30295 ft | 399 kts | 214° |
| 2026-05-04 03:20 | 42.42638 | -3.74893 | 30725 ft | 398 kts | 215° |
| 2026-05-04 03:20 | 42.40353 | -3.76975 | 31169 ft | 396 kts | 215° |
| 2026-05-04 03:20 | 42.38069 | -3.79050 | 31606 ft | 394 kts | 215° |
| 2026-05-04 03:21 | 42.35797 | -3.81109 | 32045 ft | 392 kts | 215° |
| 2026-05-04 03:21 | 42.33534 | -3.83163 | 32480 ft | 391 kts | 215° |
| 2026-05-04 03:21 | 42.31280 | -3.85207 | 32862 ft | 390 kts | 215° |
| 2026-05-04 03:22 | 42.26799 | -3.89270 | 32976 ft | 385 kts | 215° |
| 2026-05-04 03:22 | 42.22353 | -3.93294 | 32981 ft | 383 kts | 215° |
| 2026-05-04 03:23 | 42.17922 | -3.97289 | 32976 ft | 383 kts | 215° |
| 2026-05-04 03:23 | 42.13485 | -4.01278 | 32983 ft | 383 kts | 215° |
| 2026-05-04 03:24 | 42.09057 | -4.05263 | 32984 ft | 383 kts | 215° |
| 2026-05-04 03:24 | 42.04711 | -4.09389 | 32984 ft | 382 kts | 223° |
| 2026-05-04 03:25 | 42.01481 | -4.15030 | 32987 ft | 384 kts | 241° |
| 2026-05-04 03:25 | 41.99379 | -4.21606 | 32986 ft | 386 kts | 244° |
| 2026-05-04 03:26 | 41.97276 | -4.28251 | 32998 ft | 386 kts | 244° |
| 2026-05-04 03:26 | 41.95161 | -4.34878 | 33000 ft | 386 kts | 244° |
| 2026-05-04 03:27 | 41.93040 | -4.41491 | 33001 ft | 386 kts | 244° |
| 2026-05-04 03:27 | 41.90923 | -4.48122 | 33005 ft | 386 kts | 244° |
| 2026-05-04 03:28 | 41.88800 | -4.54741 | 33009 ft | 386 kts | 244° |
| 2026-05-04 03:28 | 41.86671 | -4.61357 | 33010 ft | 386 kts | 244° |
| 2026-05-04 03:29 | 41.84546 | -4.67965 | 33012 ft | 386 kts | 244° |
| 2026-05-04 03:29 | 41.82412 | -4.74564 | 33011 ft | 386 kts | 244° |
| 2026-05-04 03:30 | 41.80276 | -4.81160 | 33013 ft | 386 kts | 244° |
| 2026-05-04 03:30 | 41.78137 | -4.87764 | 33015 ft | 386 kts | 244° |
| 2026-05-04 03:31 | 41.75992 | -4.94355 | 33014 ft | 386 kts | 244° |
| 2026-05-04 03:31 | 41.73836 | -5.00943 | 33011 ft | 386 kts | 244° |
| 2026-05-04 03:32 | 41.71677 | -5.07533 | 33009 ft | 386 kts | 244° |
| 2026-05-04 03:32 | 41.69524 | -5.14123 | 33008 ft | 387 kts | 245° |
| 2026-05-04 03:33 | 41.67362 | -5.20723 | 33005 ft | 387 kts | 244° |
| 2026-05-04 03:33 | 41.65192 | -5.27320 | 33005 ft | 388 kts | 244° |
| 2026-05-04 03:34 | 41.63002 | -5.33916 | 33003 ft | 389 kts | 244° |
| 2026-05-04 03:34 | 41.60812 | -5.40528 | 33002 ft | 389 kts | 244° |
| 2026-05-04 03:35 | 41.58626 | -5.47152 | 33003 ft | 390 kts | 244° |
| 2026-05-04 03:35 | 41.56428 | -5.53775 | 33005 ft | 390 kts | 244° |
| 2026-05-04 03:36 | 41.54211 | -5.60394 | 33008 ft | 391 kts | 244° |
| 2026-05-04 03:36 | 41.52767 | -5.67386 | 33005 ft | 396 kts | 261° |
| 2026-05-04 03:37 | 41.52261 | -5.74714 | 33007 ft | 397 kts | 261° |
| 2026-05-04 03:37 | 41.51736 | -5.82043 | 33009 ft | 397 kts | 261° |
| 2026-05-04 03:38 | 41.51202 | -5.89336 | 33013 ft | 398 kts | 261° |
| 2026-05-04 03:38 | 41.50660 | -5.96691 | 33012 ft | 398 kts | 261° |
| 2026-05-04 03:39 | 41.50112 | -6.04052 | 33012 ft | 399 kts | 261° |
| 2026-05-04 03:39 | 41.49567 | -6.11422 | 33010 ft | 399 kts | 261° |
| 2026-05-04 03:40 | 41.49008 | -6.18790 | 33013 ft | 399 kts | 261° |
| 2026-05-04 03:40 | 41.48448 | -6.26165 | 33013 ft | 399 kts | 261° |
| 2026-05-04 03:41 | 41.47340 | -6.33361 | 33014 ft | 396 kts | 254° |
| 2026-05-04 03:41 | 41.46041 | -6.40511 | 33017 ft | 396 kts | 254° |
| 2026-05-04 03:42 | 41.44744 | -6.47647 | 33021 ft | 396 kts | 254° |
| 2026-05-04 03:42 | 41.43452 | -6.54780 | 33022 ft | 396 kts | 254° |
| 2026-05-04 03:43 | 41.42152 | -6.61906 | 33022 ft | 396 kts | 254° |
| 2026-05-04 03:43 | 41.40839 | -6.69013 | 32556 ft | 393 kts | 254° |
| 2026-05-04 03:43 | 41.40186 | -6.72526 | 32082 ft | 388 kts | 253° |
| 2026-05-04 03:44 | 41.39541 | -6.76003 | 31611 ft | 384 kts | 253° |
| 2026-05-04 03:44 | 41.38902 | -6.79439 | 31144 ft | 380 kts | 253° |
| 2026-05-04 03:44 | 41.38274 | -6.82840 | 30680 ft | 377 kts | 253° |
| 2026-05-04 03:44 | 41.37654 | -6.86209 | 30229 ft | 373 kts | 253° |
| 2026-05-04 03:45 | 41.37037 | -6.89543 | 29775 ft | 369 kts | 253° |
| 2026-05-04 03:45 | 41.36425 | -6.92850 | 29318 ft | 366 kts | 253° |
| 2026-05-04 03:45 | 41.35819 | -6.96123 | 28874 ft | 363 kts | 253° |
| 2026-05-04 03:45 | 41.35216 | -6.99369 | 28421 ft | 360 kts | 253° |
| 2026-05-04 03:46 | 41.34614 | -7.02588 | 27989 ft | 357 kts | 253° |
| 2026-05-04 03:46 | 41.34012 | -7.05781 | 27562 ft | 355 kts | 253° |
| 2026-05-04 03:46 | 41.33615 | -7.07880 | 27278 ft | 353 kts | 253° |
| 2026-05-04 03:46 | 41.32814 | -7.12095 | 26728 ft | 350 kts | 253° |
| 2026-05-04 03:47 | 41.32228 | -7.15181 | 26321 ft | 348 kts | 253° |
| 2026-05-04 03:47 | 41.31639 | -7.18292 | 25933 ft | 346 kts | 253° |
| 2026-05-04 03:47 | 41.31057 | -7.21382 | 25548 ft | 344 kts | 253° |
| 2026-05-04 03:47 | 41.30666 | -7.23459 | 25280 ft | 342 kts | 253° |
| 2026-05-04 03:48 | 41.29900 | -7.27503 | 24781 ft | 338 kts | 253° |
| 2026-05-04 03:48 | 41.29328 | -7.30518 | 24418 ft | 335 kts | 253° |
| 2026-05-04 03:48 | 41.28945 | -7.32538 | 24168 ft | 332 kts | 253° |
| 2026-05-04 03:48 | 41.28382 | -7.35506 | 23787 ft | 330 kts | 253° |
| 2026-05-04 03:49 | 41.27823 | -7.38443 | 23424 ft | 326 kts | 253° |
| 2026-05-04 03:49 | 41.27267 | -7.41354 | 23046 ft | 323 kts | 253° |
| 2026-05-04 03:49 | 41.26714 | -7.44238 | 22671 ft | 321 kts | 253° |
| 2026-05-04 03:49 | 41.26164 | -7.47092 | 22298 ft | 317 kts | 253° |
| 2026-05-04 03:50 | 41.25618 | -7.49924 | 21911 ft | 315 kts | 253° |
| 2026-05-04 03:50 | 41.25077 | -7.52737 | 21530 ft | 313 kts | 253° |
| 2026-05-04 03:50 | 41.24548 | -7.55497 | 21142 ft | 312 kts | 253° |
| 2026-05-04 03:50 | 41.24013 | -7.58280 | 20756 ft | 310 kts | 253° |
| 2026-05-04 03:51 | 41.23480 | -7.61044 | 20360 ft | 308 kts | 253° |
| 2026-05-04 03:51 | 41.22947 | -7.63797 | 19964 ft | 307 kts | 253° |
| 2026-05-04 03:51 | 41.22419 | -7.66534 | 19569 ft | 305 kts | 253° |
| 2026-05-04 03:51 | 41.21894 | -7.69257 | 19176 ft | 304 kts | 253° |
| 2026-05-04 03:52 | 41.21370 | -7.71971 | 18777 ft | 303 kts | 253° |
| 2026-05-04 03:52 | 41.20848 | -7.74675 | 18382 ft | 302 kts | 253° |
| 2026-05-04 03:52 | 41.20324 | -7.77367 | 17985 ft | 300 kts | 253° |
| 2026-05-04 03:52 | 41.19798 | -7.80043 | 17593 ft | 300 kts | 253° |
| 2026-05-04 03:53 | 41.19271 | -7.82716 | 17197 ft | 298 kts | 253° |
| 2026-05-04 03:53 | 41.18749 | -7.85372 | 16802 ft | 297 kts | 253° |
| 2026-05-04 03:53 | 41.18229 | -7.88023 | 16410 ft | 296 kts | 253° |
| 2026-05-04 03:53 | 41.17516 | -7.90578 | 15997 ft | 295 kts | 244° |
| 2026-05-04 03:54 | 41.16652 | -7.93047 | 15581 ft | 295 kts | 244° |
| 2026-05-04 03:54 | 41.15789 | -7.95524 | 15164 ft | 296 kts | 244° |
| 2026-05-04 03:54 | 41.14930 | -7.97995 | 14750 ft | 295 kts | 244° |
| 2026-05-04 03:54 | 41.14072 | -8.00469 | 14335 ft | 295 kts | 245° |
| 2026-05-04 03:55 | 41.13216 | -8.02940 | 13927 ft | 295 kts | 245° |
| 2026-05-04 03:55 | 41.12355 | -8.05417 | 13512 ft | 296 kts | 245° |
| 2026-05-04 03:55 | 41.11493 | -8.07892 | 13097 ft | 296 kts | 245° |
| 2026-05-04 03:55 | 41.10632 | -8.10368 | 12681 ft | 296 kts | 245° |
| 2026-05-04 03:56 | 41.09769 | -8.12845 | 12270 ft | 295 kts | 245° |
| 2026-05-04 03:56 | 41.08906 | -8.15315 | 11861 ft | 295 kts | 245° |
| 2026-05-04 03:56 | 41.08042 | -8.17788 | 11448 ft | 295 kts | 245° |
| 2026-05-04 03:56 | 41.07181 | -8.20255 | 11040 ft | 295 kts | 245° |
| 2026-05-04 03:57 | 41.06318 | -8.22723 | 10633 ft | 295 kts | 245° |
| 2026-05-04 03:57 | 41.05453 | -8.25188 | 10268 ft | 294 kts | 246° |
| 2026-05-04 03:57 | 41.04605 | -8.27600 | 10082 ft | 286 kts | 246° |
| 2026-05-04 03:57 | 41.03774 | -8.29967 | 9907 ft | 281 kts | 246° |
| 2026-05-04 03:58 | 41.02484 | -8.34842 | 9422 ft | 282 kts | 259° |
| 2026-05-04 03:58 | 41.02147 | -8.36956 | 9094 ft | 280 kts | 259° |
| 2026-05-04 03:58 | 41.01753 | -8.39429 | 8709 ft | 270 kts | 259° |
| 2026-05-04 03:59 | 41.01370 | -8.41819 | 8336 ft | 261 kts | 259° |
| 2026-05-04 03:59 | 41.00997 | -8.44119 | 7981 ft | 251 kts | 258° |
| 2026-05-04 03:59 | 41.00637 | -8.46340 | 7629 ft | 242 kts | 259° |
| 2026-05-04 03:59 | 41.00287 | -8.48483 | 7289 ft | 235 kts | 259° |
| 2026-05-04 04:00 | 40.99962 | -8.50572 | 6946 ft | 228 kts | 259° |
| 2026-05-04 04:00 | 40.99661 | -8.52604 | 6607 ft | 222 kts | 260° |
| 2026-05-04 04:00 | 40.99373 | -8.54579 | 6273 ft | 216 kts | 260° |
| 2026-05-04 04:00 | 40.99092 | -8.56500 | 5954 ft | 210 kts | 260° |
| 2026-05-04 04:01 | 40.98854 | -8.58384 | 5675 ft | 206 kts | 269° |
| 2026-05-04 04:01 | 40.99191 | -8.60185 | 5347 ft | 202 kts | 301° |
| 2026-05-04 04:01 | 41.00166 | -8.61472 | 5033 ft | 199 kts | 330° |
| 2026-05-04 04:01 | 41.01476 | -8.62002 | 4740 ft | 197 kts | 348° |
| 2026-05-04 04:02 | 41.02814 | -8.62351 | 4443 ft | 195 kts | 348° |
| 2026-05-04 04:02 | 41.04135 | -8.62701 | 4146 ft | 192 kts | 348° |
| 2026-05-04 04:02 | 41.05441 | -8.63053 | 3840 ft | 191 kts | 348° |
| 2026-05-04 04:02 | 41.06739 | -8.63402 | 3545 ft | 188 kts | 348° |
| 2026-05-04 04:03 | 41.08007 | -8.63736 | 3287 ft | 184 kts | 348° |
| 2026-05-04 04:03 | 41.09252 | -8.64063 | 3031 ft | 181 kts | 348° |
| 2026-05-04 04:03 | 41.10482 | -8.64384 | 2783 ft | 179 kts | 348° |
| 2026-05-04 04:03 | 41.11692 | -8.64697 | 2548 ft | 176 kts | 348° |
| 2026-05-04 04:04 | 41.12887 | -8.65007 | 2316 ft | 173 kts | 348° |
| 2026-05-04 04:04 | 41.14023 | -8.65301 | 2107 ft | 157 kts | 348° |
| 2026-05-04 04:04 | 41.15063 | -8.65572 | 1898 ft | 148 kts | 348° |
| 2026-05-04 04:04 | 41.16064 | -8.65833 | 1704 ft | 145 kts | 349° |
| 2026-05-04 04:05 | 41.17044 | -8.66090 | 1515 ft | 142 kts | 349° |
| 2026-05-04 04:05 | 41.18012 | -8.66344 | 1325 ft | 141 kts | 349° |
| 2026-05-04 04:05 | 41.18974 | -8.66594 | 1136 ft | 141 kts | 349° |
| 2026-05-04 04:05 | 41.19932 | -8.66846 | 950 ft | 140 kts | 349° |
| 2026-05-04 04:06 | 41.20887 | -8.67098 | 764 ft | 140 kts | 349° |
| 2026-05-04 04:06 | 41.21839 | -8.67342 | 580 ft | 139 kts | 349° |
| 2026-05-04 04:06 | 41.22777 | -8.67583 | 388 ft | 139 kts | 348° |
| 2026-05-04 04:06 | 41.23721 | -8.67840 | 232 ft | 137 kts | 349° |
| 2026-05-04 04:07 | 41.24440 | -8.68031 | 214 ft | 69 kts | 349° |
| 2026-05-04 04:07 | 41.24848 | -8.68137 | 193 ft | 57 kts | 348° |
| 2026-05-04 04:07 | 41.25134 | -8.68166 | 181 ft | 31 kts | 12° |
| 2026-05-04 04:07 | 41.25290 | -8.68085 | 176 ft | 18 kts | 62° |
| 2026-05-04 04:08 | 41.25248 | -8.68014 | 178 ft | 8 kts | 171° |
| 2026-05-04 04:08 | 41.25186 | -8.67994 | 182 ft | 9 kts | 167° |
| 2026-05-04 04:08 | 41.25124 | -8.67978 | 184 ft | 11 kts | 172° |
| 2026-05-04 04:08 | 41.25009 | -8.67948 | 187 ft | 22 kts | 169° |
| 2026-05-04 04:09 | 41.24858 | -8.67890 | 191 ft | 23 kts | 150° |
| 2026-05-04 04:09 | 41.24727 | -8.67820 | 203 ft | 18 kts | 165° |
| 2026-05-04 04:09 | 41.24613 | -8.67788 | 211 ft | 16 kts | 167° |
| 2026-05-04 04:09 | 41.24503 | -8.67760 | 215 ft | 17 kts | 168° |
| 2026-05-04 04:10 | 41.24397 | -8.67733 | 221 ft | 15 kts | 169° |
| 2026-05-04 04:10 | 41.24292 | -8.67683 | 228 ft | 17 kts | 139° |
| 2026-05-04 04:10 | 41.24211 | -8.67584 | 236 ft | 15 kts | 154° |
| 2026-05-04 04:10 | 41.24100 | -8.67548 | 237 ft | 18 kts | 172° |
| 2026-05-04 04:11 | 41.23970 | -8.67513 | 237 ft | 20 kts | 167° |
| 2026-05-04 04:11 | 41.23822 | -8.67475 | 237 ft | 23 kts | 168° |
| 2026-05-04 04:11 | 41.23656 | -8.67432 | 237 ft | 25 kts | 169° |
| 2026-05-04 04:11 | 41.23496 | -8.67388 | 237 ft | 20 kts | 168° |
| 2026-05-04 04:12 | 41.23383 | -8.67331 | 237 ft | 16 kts | 125° |
| 2026-05-04 04:12 | 41.23389 | -8.67236 | 237 ft | 10 kts | 50° |
| 2026-05-04 04:12 | 41.23412 | -8.67200 | 237 ft | 2 kts | 49° |
| 2026-05-04 04:12 | 41.23418 | -8.67191 | 237 ft | 0 kts | 49° |